Time;durP1;ratioP1;P1;durP2;ratioP2;P2;SDS_P1;SDS_P2;PMS_P1;PMS_P2;Temp;Humidity;BMP_temperature;BMP_pressure;BME280_temperature;BME280_humidity;BME280_pressure;Samples;Min_cycle;Max_cycle;Signal;HPM_P1;HPM_P2
2021/01/28 00:01:11;;;;;;;20.87;13.37;;;6.30;99.90;;;;;;5021894;28;20705;-68
2021/01/28 00:03:55;;;;;;;16.60;11.73;;;6.20;99.90;;;;;;5022187;28;20642;-69
2021/01/28 00:06:42;;;;;;;16.33;11.77;;;6.20;99.90;;;;;;5024106;28;20618;-68
2021/01/28 00:09:29;;;;;;;15.37;12.00;;;6.30;99.90;;;;;;5023774;28;20587;-68
2021/01/28 00:12:14;;;;;;;20.70;12.97;;;6.30;99.90;;;;;;5023451;28;20911;-68
2021/01/28 00:15:01;;;;;;;18.50;12.73;;;6.40;99.90;;;;;;5020059;28;20662;-68
2021/01/28 00:17:46;;;;;;;17.27;12.07;;;6.40;99.90;;;;;;5022144;28;20672;-68
2021/01/28 00:20:52;;;;;;;19.43;12.20;;;6.40;99.90;;;;;;5009192;28;20729;-68
2021/01/28 00:23:36;;;;;;;20.23;14.20;;;6.40;99.90;;;;;;5019799;28;20757;-68
2021/01/28 00:26:21;;;;;;;16.80;12.50;;;6.40;99.90;;;;;;5022359;28;20636;-67
2021/01/28 00:29:06;;;;;;;16.53;12.47;;;6.40;99.90;;;;;;5007805;28;20938;-68
2021/01/28 00:31:51;;;;;;;18.67;13.43;;;6.50;99.90;;;;;;5023439;28;20650;-68
2021/01/28 00:34:36;;;;;;;21.33;13.33;;;6.50;99.90;;;;;;5019420;28;20688;-67
2021/01/28 00:37:21;;;;;;;21.07;13.47;;;6.50;99.90;;;;;;5023332;28;21205;-68
2021/01/28 00:40:06;;;;;;;18.63;12.97;;;6.50;99.90;;;;;;5020174;28;20798;-68
2021/01/28 00:42:54;;;;;;;17.30;11.63;;;6.50;99.90;;;;;;5003304;28;20666;-69
2021/01/28 00:45:41;;;;;;;20.00;12.87;;;6.50;99.90;;;;;;5019439;28;20792;-68
2021/01/28 00:48:27;;;;;;;18.53;12.03;;;6.40;99.90;;;;;;5004060;28;20626;-68
2021/01/28 00:51:11;;;;;;;18.40;12.07;;;6.40;99.90;;;;;;5020534;28;21122;-68
2021/01/28 00:53:56;;;;;;;19.83;12.80;;;6.40;99.90;;;;;;5021371;28;20650;-68
2021/01/28 00:56:40;;;;;;;18.80;11.70;;;6.40;99.90;;;;;;5024078;28;20634;-68
2021/01/28 00:59:24;;;;;;;16.30;10.97;;;6.50;99.90;;;;;;5019236;28;20626;-68
2021/01/28 01:02:09;;;;;;;17.27;10.50;;;6.50;99.90;;;;;;5021865;28;20658;-68
2021/01/28 01:04:59;;;;;;;14.57;9.90;;;6.50;99.90;;;;;;5008732;28;20802;-67
2021/01/28 01:07:44;;;;;;;16.13;10.63;;;6.30;99.90;;;;;;5016710;28;20611;-70
2021/01/28 01:10:33;;;;;;;17.53;10.97;;;6.40;99.90;;;;;;5018167;28;20609;-68
2021/01/28 01:13:22;;;;;;;15.87;10.80;;;6.30;99.90;;;;;;5021992;28;21064;-69
2021/01/28 01:16:10;;;;;;;14.40;10.43;;;6.20;99.90;;;;;;5005610;28;20658;-68
2021/01/28 01:18:55;;;;;;;14.90;9.57;;;6.20;99.90;;;;;;5022203;28;20987;-68
2021/01/28 01:21:39;;;;;;;16.47;10.87;;;6.30;99.90;;;;;;5019746;28;20677;-68
2021/01/28 01:24:24;;;;;;;15.07;10.30;;;6.20;99.90;;;;;;5019785;28;20653;-68
2021/01/28 01:27:08;;;;;;;17.40;11.10;;;6.10;99.90;;;;;;5007907;28;20602;-68
2021/01/28 01:29:53;;;;;;;21.73;11.60;;;6.10;99.90;;;;;;5020978;28;20631;-68
2021/01/28 01:32:40;;;;;;;15.53;10.97;;;5.90;99.90;;;;;;5021284;28;20634;-68
2021/01/28 01:35:25;;;;;;;16.93;11.53;;;6.00;99.90;;;;;;5008058;28;21376;-67
2021/01/28 01:38:11;;;;;;;15.27;10.13;;;6.00;99.90;;;;;;5020663;28;20591;-68
2021/01/28 01:40:57;;;;;;;11.70;8.53;;;6.10;99.90;;;;;;5005787;28;20623;-69
2021/01/28 01:43:42;;;;;;;9.63;7.50;;;6.10;99.90;;;;;;5021171;28;20634;-68
2021/01/28 01:46:28;;;;;;;9.03;6.63;;;6.10;99.90;;;;;;5020766;28;20586;-68
2021/01/28 01:49:16;;;;;;;8.80;7.03;;;6.00;99.90;;;;;;5018105;28;20594;-68
2021/01/28 01:52:01;;;;;;;9.60;6.90;;;6.00;99.90;;;;;;5021174;28;20638;-68
2021/01/28 01:54:47;;;;;;;9.33;7.27;;;6.00;99.90;;;;;;5019463;28;20647;-68
2021/01/28 01:57:36;;;;;;;7.80;6.70;;;5.80;99.90;;;;;;5023208;28;21374;-68
2021/01/28 02:00:25;;;;;;;10.50;6.93;;;5.80;99.90;;;;;;5016283;28;20657;-67
2021/01/28 02:03:14;;;;;;;11.67;7.70;;;5.80;99.90;;;;;;5014326;28;20722;-68
2021/01/28 02:06:31;;;;;;;12.17;7.63;;;5.80;99.90;;;;;;5026254;28;20681;-68
2021/01/28 02:09:16;;;;;;;11.03;7.63;;;5.70;99.90;;;;;;5010427;28;20591;-67
2021/01/28 02:12:01;;;;;;;14.67;8.77;;;5.70;99.90;;;;;;5013718;28;20725;-67
2021/01/28 02:14:46;;;;;;;13.40;8.50;;;5.70;99.90;;;;;;5026530;28;20638;-68
2021/01/28 02:17:32;;;;;;;13.13;9.03;;;5.80;99.90;;;;;;5027233;28;20738;-68
2021/01/28 02:20:39;;;;;;;12.77;9.83;;;6.00;99.90;;;;;;5025901;28;20746;-64
2021/01/28 02:23:41;;;;;;;13.70;9.20;;;6.00;99.90;;;;;;5012791;28;21260;-66
2021/01/28 02:26:29;;;;;;;14.83;9.60;;;6.00;99.90;;;;;;5026362;28;20599;-66
2021/01/28 02:29:14;;;;;;;14.27;9.50;;;5.80;99.90;;;;;;5029622;28;20574;-66
2021/01/28 02:31:59;;;;;;;12.53;10.30;;;5.90;99.90;;;;;;5012894;28;20750;-65
2021/01/28 02:34:45;;;;;;;12.80;8.30;;;6.00;99.90;;;;;;5025506;28;20638;-66
2021/01/28 02:37:30;;;;;;;13.47;9.63;;;6.00;99.90;;;;;;5024313;28;20620;-68
2021/01/28 02:40:17;;;;;;;15.20;8.90;;;6.10;99.90;;;;;;5029514;28;20634;-66
2021/01/28 02:43:02;;;;;;;12.77;8.40;;;6.10;99.90;;;;;;5029873;28;20626;-65
2021/01/28 02:45:47;;;;;;;13.30;9.10;;;6.10;99.90;;;;;;5026232;28;21236;-65
2021/01/28 02:48:31;;;;;;;13.67;9.03;;;6.10;99.90;;;;;;5030687;28;20642;-66
2021/01/28 02:51:16;;;;;;;16.13;9.80;;;6.00;99.90;;;;;;5026506;28;20650;-66
2021/01/28 02:54:01;;;;;;;15.40;8.40;;;6.00;99.90;;;;;;5027835;28;20641;-66
2021/01/28 02:56:46;;;;;;;15.17;10.00;;;5.90;99.90;;;;;;5014223;28;20610;-65
2021/01/28 02:59:30;;;;;;;14.03;9.60;;;5.90;99.90;;;;;;5026808;28;20630;-65
2021/01/28 03:02:17;;;;;;;15.87;9.13;;;5.90;99.90;;;;;;5025204;28;21163;-66
2021/01/28 03:05:05;;;;;;;15.53;9.53;;;5.80;99.90;;;;;;5026848;28;20647;-65
2021/01/28 03:07:50;;;;;;;15.03;9.10;;;5.80;99.90;;;;;;5010340;28;21256;-65
2021/01/28 03:10:36;;;;;;;13.57;8.40;;;5.80;99.90;;;;;;5026604;28;20614;-65
2021/01/28 03:13:22;;;;;;;14.17;9.30;;;5.80;99.90;;;;;;5027976;28;20929;-66
2021/01/28 03:16:07;;;;;;;13.30;9.27;;;5.80;99.90;;;;;;5006865;28;20599;-66
2021/01/28 03:18:51;;;;;;;15.83;8.60;;;5.70;99.90;;;;;;5011244;28;20988;-66
2021/01/28 03:21:35;;;;;;;12.73;8.87;;;5.70;99.90;;;;;;5013118;28;20677;-65
2021/01/28 03:24:20;;;;;;;16.03;9.73;;;5.70;99.90;;;;;;5025769;28;20682;-63
2021/01/28 03:27:09;;;;;;;13.57;8.93;;;5.70;99.90;;;;;;5027670;28;20591;-65
2021/01/28 03:29:54;;;;;;;13.63;8.63;;;5.70;99.90;;;;;;5026488;28;20661;-65
2021/01/28 03:32:38;;;;;;;11.87;8.30;;;5.70;99.90;;;;;;5027096;28;20994;-66
2021/01/28 03:35:24;;;;;;;11.83;7.40;;;5.70;99.90;;;;;;5025071;28;20654;-66
2021/01/28 03:38:12;;;;;;;12.83;8.23;;;5.70;99.90;;;;;;5028814;28;20743;-66
2021/01/28 03:41:01;;;;;;;11.50;7.70;;;5.70;99.90;;;;;;5006107;28;20642;-66
2021/01/28 03:43:46;;;;;;;10.03;7.57;;;5.70;99.90;;;;;;5026689;28;20630;-65
2021/01/28 03:46:30;;;;;;;10.50;7.83;;;5.70;99.90;;;;;;5018575;28;21090;-65
2021/01/28 03:49:15;;;;;;;10.97;7.13;;;5.70;99.90;;;;;;5023364;28;20634;-66
2021/01/28 03:51:59;;;;;;;11.00;7.53;;;5.70;99.90;;;;;;5027791;28;20694;-66
2021/01/28 03:54:45;;;;;;;10.33;6.90;;;5.60;99.90;;;;;;5030667;28;20641;-65
2021/01/28 03:57:29;;;;;;;11.20;6.77;;;5.60;99.90;;;;;;5031831;28;20693;-66
2021/01/28 04:00:23;;;;;;;10.70;7.17;;;5.60;99.90;;;;;;5015233;28;20622;-66
2021/01/28 04:03:08;;;;;;;11.63;7.10;;;5.60;99.90;;;;;;5009011;28;20833;-66
2021/01/28 04:05:53;;;;;;;9.10;6.33;;;5.60;99.90;;;;;;5030743;28;20630;-64
2021/01/28 04:08:37;;;;;;;10.20;7.00;;;5.50;99.90;;;;;;5013328;28;20582;-65
2021/01/28 04:11:22;;;;;;;8.40;6.40;;;5.50;99.90;;;;;;5039929;28;20711;-66
2021/01/28 04:14:06;;;;;;;8.20;6.37;;;5.60;99.90;;;;;;5028979;28;20650;-66
2021/01/28 04:16:51;;;;;;;7.43;6.30;;;5.60;99.90;;;;;;5030727;28;20677;-66
2021/01/28 04:19:35;;;;;;;10.97;6.60;;;5.60;99.90;;;;;;5016468;28;20597;-65
2021/01/28 04:22:19;;;;;;;10.27;7.03;;;5.50;99.90;;;;;;5032518;28;20650;-66
2021/01/28 04:25:05;;;;;;;10.57;6.73;;;5.50;99.90;;;;;;5028915;28;20638;-66
2021/01/28 04:27:52;;;;;;;9.87;6.60;;;5.50;99.90;;;;;;5029119;28;20598;-66
2021/01/28 04:30:36;;;;;;;8.60;5.93;;;5.50;99.90;;;;;;5036046;28;20597;-65
2021/01/28 04:33:21;;;;;;;8.10;5.80;;;5.50;99.90;;;;;;5015522;28;20583;-66
2021/01/28 04:36:06;;;;;;;7.87;5.83;;;5.50;99.90;;;;;;5030327;28;20745;-64
2021/01/28 04:38:54;;;;;;;7.17;5.80;;;5.50;99.90;;;;;;5016579;28;20605;-66
2021/01/28 04:41:40;;;;;;;9.00;5.90;;;5.50;99.90;;;;;;5031135;28;21018;-66
2021/01/28 04:44:26;;;;;;;8.00;5.77;;;5.50;99.90;;;;;;5028340;28;20634;-66
2021/01/28 04:47:17;;;;;;;8.10;5.67;;;5.40;99.90;;;;;;5013505;28;21189;-66
2021/01/28 04:50:04;;;;;;;8.20;6.20;;;5.40;99.90;;;;;;5029182;28;20968;-65
2021/01/28 04:52:53;;;;;;;7.03;5.67;;;5.40;99.90;;;;;;5027409;28;21005;-66
2021/01/28 04:55:44;;;;;;;7.00;5.70;;;5.40;99.90;;;;;;5028071;28;20692;-65
2021/01/28 04:58:29;;;;;;;7.17;5.87;;;5.40;99.90;;;;;;5015624;28;21084;-66
2021/01/28 05:01:14;;;;;;;7.57;5.00;;;5.40;99.90;;;;;;5030054;28;20662;-64
2021/01/28 05:04:04;;;;;;;8.27;6.10;;;5.40;99.90;;;;;;5020000;28;20626;-66
2021/01/28 05:06:52;;;;;;;7.23;5.30;;;5.40;99.90;;;;;;5029516;28;20622;-65
2021/01/28 05:09:38;;;;;;;7.33;5.67;;;5.30;99.90;;;;;;5023980;28;20971;-65
2021/01/28 05:12:23;;;;;;;6.83;5.10;;;5.30;99.90;;;;;;5030445;28;20697;-65
2021/01/28 05:15:12;;;;;;;7.30;5.30;;;5.30;99.90;;;;;;5012315;28;20646;-65
2021/01/28 05:18:02;;;;;;;10.37;6.10;;;5.20;99.90;;;;;;5031067;28;20598;-66
2021/01/28 05:20:47;;;;;;;8.13;5.83;;;5.20;99.90;;;;;;5029171;28;20818;-66
2021/01/28 05:23:35;;;;;;;7.40;5.10;;;5.20;99.90;;;;;;5027137;28;21161;-66
2021/01/28 05:26:41;;;;;;;7.90;5.43;;;5.10;99.90;;;;;;5025767;28;20634;-66
2021/01/28 05:29:41;;;;;;;8.87;5.93;;;5.00;99.90;;;;;;5009600;28;20615;-65
2021/01/28 05:32:47;;;;;;;6.93;5.00;;;4.90;99.90;;;;;;5019456;28;21240;-66
2021/01/28 05:35:32;;;;;;;7.50;5.20;;;4.90;99.90;;;;;;5011105;28;20682;-65
2021/01/28 05:38:17;;;;;;;7.00;5.40;;;4.80;99.90;;;;;;5025099;28;21113;-66
2021/01/28 05:41:03;;;;;;;7.20;5.50;;;4.80;99.90;;;;;;5024152;28;20631;-66
2021/01/28 05:43:47;;;;;;;7.20;5.53;;;4.70;99.90;;;;;;5010109;28;20642;-65
2021/01/28 05:46:32;;;;;;;8.10;5.20;;;4.70;99.90;;;;;;5022958;28;20629;-67
2021/01/28 05:49:22;;;;;;;6.30;5.23;;;4.60;99.90;;;;;;5012822;28;20632;-65
2021/01/28 05:52:25;;;;;;;6.80;5.10;;;4.60;99.90;;;;;;5028630;28;20654;-66
2021/01/28 05:55:21;;;;;;;7.60;5.80;;;4.50;99.90;;;;;;5020610;28;21149;-65
2021/01/28 05:58:31;;;;;;;7.40;5.53;;;4.50;99.90;;;;;;5023808;28;20611;-66
2021/01/28 06:01:23;;;;;;;8.37;6.00;;;4.40;99.90;;;;;;5003684;28;20821;-65
2021/01/28 06:04:30;;;;;;;8.33;5.47;;;4.40;99.90;;;;;;5014930;28;20642;-64
2021/01/28 06:07:31;;;;;;;7.63;5.57;;;4.40;99.90;;;;;;5007469;28;21201;-66
2021/01/28 06:10:49;;;;;;;7.80;5.10;;;4.40;99.90;;;;;;5016504;28;20583;-66
2021/01/28 06:14:18;;;;;;;7.50;5.73;;;4.40;99.90;;;;;;5023171;28;20698;-65
2021/01/28 06:17:37;;;;;;;7.70;5.10;;;4.30;99.90;;;;;;5016138;28;21080;-66
2021/01/28 06:20:22;;;;;;;6.70;5.33;;;4.30;99.90;;;;;;5013938;28;20571;-66
2021/01/28 06:23:43;;;;;;;7.40;6.20;;;4.30;99.90;;;;;;5028184;28;20654;-66
2021/01/28 06:26:34;;;;;;;8.90;6.27;;;4.20;99.90;;;;;;5026204;28;20649;-65
2021/01/28 06:29:31;;;;;;;9.33;6.20;;;4.20;99.90;;;;;;4996494;28;20680;-65
2021/01/28 06:32:37;;;;;;;8.60;6.40;;;4.20;99.90;;;;;;5025973;28;20635;-66
2021/01/28 06:35:44;;;;;;;8.30;5.70;;;4.20;99.90;;;;;;5004674;28;21478;-65
2021/01/28 06:38:50;;;;;;;9.13;6.13;;;4.20;99.90;;;;;;5007556;28;20610;-66
2021/01/28 06:41:44;;;;;;;9.40;5.77;;;4.10;99.90;;;;;;5000574;28;20674;-65
2021/01/28 06:44:57;;;;;;;7.60;5.67;;;4.10;99.90;;;;;;5025094;28;20646;-66
2021/01/28 06:48:18;;;;;;;7.73;5.50;;;4.10;99.90;;;;;;5018727;28;21375;-65
2021/01/28 06:51:15;;;;;;;8.80;6.10;;;4.10;99.90;;;;;;5019896;28;20612;-64
2021/01/28 06:54:07;;;;;;;6.93;5.73;;;4.10;99.90;;;;;;5017606;28;20654;-65
2021/01/28 06:57:03;;;;;;;8.50;5.60;;;4.10;99.90;;;;;;5017137;28;20642;-65
2021/01/28 07:00:03;;;;;;;7.30;5.77;;;4.00;99.90;;;;;;4997569;28;21222;-63
2021/01/28 07:03:03;;;;;;;7.23;5.70;;;4.00;99.90;;;;;;5009178;28;20663;-65
2021/01/28 07:06:01;;;;;;;7.87;5.93;;;4.00;99.90;;;;;;4958750;28;20644;-65
2021/01/28 07:09:27;;;;;;;8.20;6.03;;;4.00;99.90;;;;;;5012025;28;20634;-66
2021/01/28 07:12:18;;;;;;;7.50;5.40;;;4.00;99.90;;;;;;4994474;28;20658;-65
2021/01/28 07:15:03;;;;;;;8.70;5.77;;;4.00;99.90;;;;;;5018411;28;21141;-63
2021/01/28 07:17:56;;;;;;;8.03;5.50;;;4.00;99.90;;;;;;4998581;28;21232;-63
2021/01/28 07:21:02;;;;;;;8.90;5.90;;;3.90;99.90;;;;;;5026428;28;21064;-66
2021/01/28 07:24:04;;;;;;;8.97;6.40;;;3.80;99.90;;;;;;5017962;28;20655;-65
2021/01/28 07:26:52;;;;;;;8.97;6.53;;;4.00;99.90;;;;;;4998164;28;20661;-66
2021/01/28 07:29:50;;;;;;;8.27;6.20;;;3.90;99.90;;;;;;5026845;28;20583;-66
2021/01/28 07:32:37;;;;;;;10.43;7.30;;;3.90;99.90;;;;;;5019143;28;20671;-66
2021/01/28 07:35:34;;;;;;;7.83;6.33;;;3.90;99.90;;;;;;5007285;28;21350;-66
2021/01/28 07:38:28;;;;;;;9.67;7.13;;;3.90;99.90;;;;;;5026955;28;20685;-66
2021/01/28 07:41:15;;;;;;;10.90;6.77;;;3.90;99.90;;;;;;5026139;28;20784;-69
2021/01/28 07:44:25;;;;;;;8.50;6.67;;;3.90;99.90;;;;;;5025436;28;20626;-67
2021/01/28 07:47:32;;;;;;;10.80;7.30;;;3.90;99.90;;;;;;5011372;28;21205;-69
2021/01/28 07:50:33;;;;;;;7.87;6.40;;;3.90;99.90;;;;;;5029863;28;20589;-68
2021/01/28 07:53:47;;;;;;;10.90;7.50;;;3.90;99.90;;;;;;5025771;28;20621;-67
2021/01/28 07:56:35;;;;;;;11.73;9.20;;;3.80;99.90;;;;;;5017227;28;20650;-67
2021/01/28 07:59:35;;;;;;;12.40;9.60;;;3.90;99.90;;;;;;5023599;28;21373;-68
2021/01/28 08:02:32;;;;;;;11.37;9.30;;;3.90;99.90;;;;;;5021460;28;20805;-65
2021/01/28 08:05:21;;;;;;;9.60;8.17;;;3.90;99.90;;;;;;5008628;28;20634;-65
2021/01/28 08:08:12;;;;;;;11.13;8.13;;;3.90;99.90;;;;;;5005069;28;20649;-61
2021/01/28 08:11:19;;;;;;;9.27;7.20;;;3.90;99.90;;;;;;5023034;28;20602;-64
2021/01/28 08:14:10;;;;;;;8.40;6.77;;;3.90;99.90;;;;;;5016092;28;20634;-65
2021/01/28 08:16:56;;;;;;;9.20;7.50;;;3.90;99.90;;;;;;5013392;28;20665;-65
2021/01/28 08:19:40;;;;;;;11.67;7.73;;;3.90;99.90;;;;;;5014924;28;20622;-64
2021/01/28 08:22:25;;;;;;;9.00;7.37;;;3.90;99.90;;;;;;5024964;28;20650;-65
2021/01/28 08:25:10;;;;;;;9.67;7.67;;;3.90;99.90;;;;;;5021259;28;21315;-65
2021/01/28 08:28:04;;;;;;;10.80;8.40;;;3.90;99.90;;;;;;5005773;28;20664;-63
2021/01/28 08:30:59;;;;;;;10.30;7.03;;;4.00;99.90;;;;;;5011322;28;20611;-65
2021/01/28 08:33:47;;;;;;;11.37;7.63;;;4.00;99.90;;;;;;5007888;28;21235;-65
2021/01/28 08:36:48;;;;;;;8.93;6.67;;;4.00;99.90;;;;;;5007966;28;20594;-63
2021/01/28 08:39:37;;;;;;;7.73;6.80;;;4.00;99.90;;;;;;5005903;28;20580;-65
2021/01/28 08:42:24;;;;;;;7.83;6.70;;;4.00;99.90;;;;;;5021048;28;20681;-65
2021/01/28 08:45:09;;;;;;;9.50;6.97;;;4.00;99.90;;;;;;5018968;28;20626;-65
2021/01/28 08:47:59;;;;;;;8.87;7.00;;;4.00;99.90;;;;;;5022889;28;20598;-63
2021/01/28 08:50:44;;;;;;;8.17;6.37;;;4.00;99.90;;;;;;5014164;28;21281;-65
2021/01/28 08:53:31;;;;;;;8.10;6.47;;;4.00;99.90;;;;;;5018472;28;20595;-66
2021/01/28 08:56:27;;;;;;;7.13;6.07;;;4.00;99.90;;;;;;5026541;28;20653;-66
2021/01/28 08:59:14;;;;;;;7.70;5.70;;;4.00;99.90;;;;;;5002293;28;20625;-65
2021/01/28 09:02:01;;;;;;;6.20;5.53;;;4.00;99.90;;;;;;5005208;28;20688;-67
2021/01/28 09:04:52;;;;;;;9.80;6.03;;;3.90;99.90;;;;;;5016814;28;21144;-67
2021/01/28 09:07:56;;;;;;;7.17;5.93;;;3.90;99.90;;;;;;5023691;28;20959;-67
2021/01/28 09:10:42;;;;;;;6.87;5.70;;;3.90;99.90;;;;;;5019777;28;20976;-68
2021/01/28 09:13:32;;;;;;;6.97;5.57;;;4.00;99.90;;;;;;5021233;28;20610;-67
2021/01/28 09:16:18;;;;;;;7.67;5.40;;;4.00;99.90;;;;;;5020158;28;20588;-68
2021/01/28 09:19:17;;;;;;;7.10;5.93;;;3.80;99.90;;;;;;5023243;28;20758;-67
2021/01/28 09:22:26;;;;;;;6.60;5.50;;;4.00;99.90;;;;;;5005142;28;20667;-68
2021/01/28 09:25:20;;;;;;;8.57;6.67;;;4.00;99.90;;;;;;5021160;28;20634;-68
2021/01/28 09:28:11;;;;;;;6.60;5.53;;;4.00;99.90;;;;;;5023508;28;20591;-68
2021/01/28 09:30:55;;;;;;;8.80;5.47;;;4.10;99.90;;;;;;5015581;28;20606;-69
2021/01/28 09:33:41;;;;;;;8.13;5.80;;;4.10;99.90;;;;;;5001186;28;20686;-68
2021/01/28 09:36:29;;;;;;;6.33;5.43;;;4.10;99.90;;;;;;5009449;28;20626;-66
2021/01/28 09:39:23;;;;;;;6.17;5.57;;;4.10;99.90;;;;;;5021437;28;20591;-67
2021/01/28 09:42:30;;;;;;;7.33;5.00;;;4.20;99.90;;;;;;5024076;28;20651;-68
2021/01/28 09:45:24;;;;;;;6.43;5.40;;;4.20;99.90;;;;;;4999629;28;20778;-67
2021/01/28 09:48:09;;;;;;;6.63;5.40;;;4.20;99.90;;;;;;5014867;28;20969;-67
2021/01/28 09:50:54;;;;;;;6.20;5.47;;;4.30;99.90;;;;;;5015390;28;20770;-69
2021/01/28 09:53:56;;;;;;;5.90;4.97;;;4.30;99.90;;;;;;5006390;28;22093;-67
2021/01/28 09:56:41;;;;;;;6.93;5.53;;;4.30;99.90;;;;;;5006326;28;20773;-67
2021/01/28 09:59:27;;;;;;;7.27;5.80;;;4.20;99.90;;;;;;5016159;28;21198;-67
2021/01/28 10:02:16;;;;;;;8.00;6.10;;;4.20;99.90;;;;;;5017923;28;20678;-67
2021/01/28 10:05:03;;;;;;;7.10;5.80;;;4.30;99.90;;;;;;5013407;28;20638;-68
2021/01/28 10:07:48;;;;;;;6.00;5.37;;;4.40;99.90;;;;;;5003949;28;20584;-67
2021/01/28 10:10:35;;;;;;;6.87;5.40;;;4.40;99.90;;;;;;5015003;28;21277;-66
2021/01/28 10:13:20;;;;;;;6.27;5.47;;;4.50;99.90;;;;;;5002859;28;20950;-66
2021/01/28 10:16:05;;;;;;;6.40;5.40;;;4.60;99.90;;;;;;5002672;28;20630;-66
2021/01/28 10:18:49;;;;;;;6.30;5.67;;;4.60;99.90;;;;;;5019124;28;21584;-67
2021/01/28 10:21:34;;;;;;;5.70;4.90;;;4.60;99.90;;;;;;5021307;28;20677;-70
2021/01/28 10:24:19;;;;;;;7.10;5.00;;;4.70;99.90;;;;;;5007401;28;20713;-70
2021/01/28 10:27:03;;;;;;;6.23;4.50;;;4.70;99.90;;;;;;5015358;28;20599;-69
2021/01/28 10:29:47;;;;;;;5.60;4.93;;;4.80;99.90;;;;;;4992813;28;20650;-69
2021/01/28 10:32:32;;;;;;;8.43;5.10;;;4.80;99.90;;;;;;5003635;28;20740;-69
2021/01/28 10:35:20;;;;;;;6.30;4.43;;;4.90;99.90;;;;;;5017843;28;21330;-70
2021/01/28 10:38:10;;;;;;;4.20;3.80;;;5.00;99.90;;;;;;5016126;28;20591;-70
2021/01/28 10:40:56;;;;;;;4.37;3.97;;;5.00;99.90;;;;;;5014008;28;20603;-69
2021/01/28 10:43:41;;;;;;;4.07;3.67;;;5.00;99.90;;;;;;5003475;28;20651;-69
2021/01/28 10:46:25;;;;;;;4.03;3.53;;;5.00;99.90;;;;;;5023682;28;21000;-69
2021/01/28 10:49:10;;;;;;;3.97;3.40;;;5.00;99.90;;;;;;5021721;28;20595;-69
2021/01/28 10:51:55;;;;;;;4.07;3.77;;;5.00;99.90;;;;;;5022876;28;21323;-69
2021/01/28 10:54:40;;;;;;;3.70;3.37;;;5.00;99.90;;;;;;5002259;28;20693;-69
2021/01/28 10:57:24;;;;;;;4.47;3.73;;;5.00;99.90;;;;;;5007916;28;20689;-70
2021/01/28 11:00:10;;;;;;;5.20;3.73;;;5.00;99.90;;;;;;5024004;28;20599;-70
2021/01/28 11:02:55;;;;;;;4.20;3.80;;;5.00;99.90;;;;;;5021409;28;20661;-70
2021/01/28 11:05:39;;;;;;;4.10;3.80;;;5.00;99.90;;;;;;4999021;28;20837;-70
2021/01/28 11:08:24;;;;;;;4.87;3.43;;;5.00;99.90;;;;;;5027123;28;21193;-67
2021/01/28 11:11:11;;;;;;;4.00;3.00;;;5.00;99.90;;;;;;5019621;28;20994;-67
2021/01/28 11:13:56;;;;;;;4.10;3.43;;;5.00;99.90;;;;;;5017794;28;20647;-67
2021/01/28 11:16:40;;;;;;;3.77;3.40;;;5.00;99.90;;;;;;5010318;28;21288;-67
2021/01/28 11:19:25;;;;;;;3.40;3.10;;;4.90;99.90;;;;;;5020516;28;20591;-67
2021/01/28 11:22:09;;;;;;;4.10;2.80;;;4.90;99.90;;;;;;5023333;28;21262;-67
2021/01/28 11:24:53;;;;;;;4.53;3.40;;;4.90;99.90;;;;;;5015811;28;20852;-68
2021/01/28 11:27:38;;;;;;;4.30;3.90;;;4.90;99.90;;;;;;5019674;28;20600;-69
2021/01/28 11:30:26;;;;;;;4.83;4.10;;;4.90;99.90;;;;;;5019090;28;20587;-69
2021/01/28 11:33:11;;;;;;;5.00;4.50;;;4.90;99.90;;;;;;5006789;28;20647;-67
2021/01/28 11:35:56;;;;;;;4.40;4.00;;;4.90;99.90;;;;;;5021382;28;20654;-68
2021/01/28 11:38:41;;;;;;;5.20;4.40;;;4.90;99.90;;;;;;5011706;28;20633;-67
2021/01/28 11:41:26;;;;;;;5.50;4.20;;;4.90;99.90;;;;;;5023004;28;20654;-68
2021/01/28 11:44:11;;;;;;;4.37;3.90;;;4.90;99.90;;;;;;5016784;28;20713;-70
2021/01/28 11:46:57;;;;;;;4.17;3.77;;;4.90;99.90;;;;;;5023493;28;20638;-67
2021/01/28 11:49:43;;;;;;;4.73;3.63;;;4.80;99.90;;;;;;5017727;28;20607;-63
2021/01/28 11:52:30;;;;;;;4.33;3.63;;;4.80;99.90;;;;;;4997098;28;21014;-68
2021/01/28 11:55:18;;;;;;;4.77;3.80;;;4.80;99.90;;;;;;5020305;28;20638;-68
2021/01/28 11:58:05;;;;;;;4.80;3.90;;;4.80;99.90;;;;;;5017538;28;20772;-67
2021/01/28 12:00:53;;;;;;;4.50;4.10;;;4.80;99.90;;;;;;5019782;28;20611;-68
2021/01/28 12:03:37;;;;;;;5.50;4.40;;;4.90;99.90;;;;;;5017868;28;20670;-68
2021/01/28 12:06:22;;;;;;;4.97;4.43;;;4.90;99.90;;;;;;5012653;28;20582;-67
2021/01/28 12:09:09;;;;;;;6.77;5.77;;;5.00;99.90;;;;;;5018512;28;20982;-68
2021/01/28 12:11:53;;;;;;;4.87;4.37;;;5.00;99.90;;;;;;5006172;28;21010;-69
2021/01/28 12:14:38;;;;;;;4.60;3.63;;;5.00;99.90;;;;;;5021960;28;20721;-69
2021/01/28 12:17:23;;;;;;;4.40;4.00;;;5.10;99.90;;;;;;5024512;28;20587;-68
2021/01/28 12:20:12;;;;;;;3.80;3.50;;;5.10;99.90;;;;;;5025417;28;20583;-67
2021/01/28 12:22:57;;;;;;;4.47;4.07;;;5.20;99.90;;;;;;5003434;28;20710;-68
2021/01/28 12:25:42;;;;;;;5.23;4.30;;;5.20;99.90;;;;;;5017367;28;20704;-68
2021/01/28 12:28:27;;;;;;;6.30;4.50;;;5.30;99.90;;;;;;5018584;28;20666;-67
2021/01/28 12:31:13;;;;;;;5.23;3.87;;;5.30;99.90;;;;;;5021642;28;20728;-65
2021/01/28 12:33:58;;;;;;;4.40;4.00;;;5.40;99.90;;;;;;5002787;28;20684;-65
2021/01/28 12:36:42;;;;;;;4.03;3.63;;;5.50;99.90;;;;;;5019780;28;20598;-65
2021/01/28 12:39:27;;;;;;;3.93;3.53;;;5.60;99.90;;;;;;5017868;28;20602;-65
2021/01/28 12:42:11;;;;;;;4.30;3.90;;;5.70;99.90;;;;;;5010603;28;20801;-64
2021/01/28 12:44:56;;;;;;;5.97;4.00;;;5.80;99.90;;;;;;5018793;28;21386;-64
2021/01/28 12:47:42;;;;;;;5.23;4.50;;;6.00;99.90;;;;;;5022781;28;20609;-65
2021/01/28 12:50:30;;;;;;;4.43;4.03;;;6.10;99.90;;;;;;5015126;28;20609;-65
2021/01/28 12:53:15;;;;;;;3.80;3.50;;;6.30;99.90;;;;;;5024830;28;20665;-65
2021/01/28 12:55:59;;;;;;;6.60;4.37;;;6.30;99.90;;;;;;5025974;28;21634;-65
2021/01/28 12:58:44;;;;;;;3.83;3.43;;;6.40;99.90;;;;;;5003673;28;20584;-64
2021/01/28 13:01:28;;;;;;;5.30;3.90;;;6.40;99.90;;;;;;5016299;28;21006;-65
2021/01/28 13:04:13;;;;;;;4.07;3.03;;;6.50;99.90;;;;;;4998282;28;20785;-65
2021/01/28 13:07:00;;;;;;;4.13;3.77;;;6.90;99.90;;;;;;5010995;28;20622;-65
2021/01/28 13:09:45;;;;;;;3.27;2.80;;;7.20;99.90;;;;;;5021577;28;21190;-64
2021/01/28 13:12:29;;;;;;;3.10;2.80;;;7.50;99.90;;;;;;5011891;28;20661;-64
2021/01/28 13:15:18;;;;;;;5.43;3.53;;;7.80;99.90;;;;;;5015051;28;21054;-66
2021/01/28 13:18:04;;;;;;;5.10;2.83;;;8.20;99.90;;;;;;5017030;28;20594;-66
2021/01/28 13:20:49;;;;;;;3.43;3.03;;;8.50;99.90;;;;;;5018621;28;20618;-67
2021/01/28 13:23:33;;;;;;;5.03;3.20;;;8.70;99.90;;;;;;5016841;28;20631;-68
2021/01/28 13:26:21;;;;;;;2.80;2.60;;;8.80;99.90;;;;;;5016857;28;21317;-67
2021/01/28 13:29:06;;;;;;;3.00;2.53;;;8.80;99.90;;;;;;5004303;28;21100;-67
2021/01/28 13:31:52;;;;;;;4.83;3.10;;;8.70;99.90;;;;;;5005822;28;21561;-68
2021/01/28 13:34:37;;;;;;;4.07;3.13;;;8.70;99.90;;;;;;5020434;28;20650;-67
2021/01/28 13:37:22;;;;;;;4.83;3.50;;;8.60;99.90;;;;;;5009228;28;20598;-67
2021/01/28 13:40:07;;;;;;;4.20;3.20;;;8.40;99.90;;;;;;5011624;28;20596;-68
2021/01/28 13:42:54;;;;;;;4.57;2.73;;;8.30;99.90;;;;;;5019647;28;21078;-69
2021/01/28 13:45:39;;;;;;;4.13;2.77;;;8.20;99.90;;;;;;5001223;28;20680;-67
2021/01/28 13:48:27;;;;;;;3.37;2.10;;;8.20;99.90;;;;;;5004203;28;20610;-68
2021/01/28 13:51:12;;;;;;;2.63;2.23;;;8.30;99.90;;;;;;5009376;28;20674;-68
2021/01/28 13:53:56;;;;;;;3.13;2.07;;;8.40;99.90;;;;;;5006028;28;23733;-66
2021/01/28 13:56:43;;;;;;;2.00;1.90;;;8.50;99.90;;;;;;5012249;28;21114;-65
2021/01/28 13:59:28;;;;;;;7.03;3.00;;;8.80;99.90;;;;;;5018487;28;20656;-68
2021/01/28 14:02:15;;;;;;;2.43;2.23;;;9.00;99.90;;;;;;5018431;28;20686;-67
2021/01/28 14:04:59;;;;;;;3.10;2.27;;;9.10;99.90;;;;;;5004440;28;25702;-66
2021/01/28 14:07:44;;;;;;;2.90;1.90;;;9.20;99.90;;;;;;5019302;28;20633;-67
2021/01/28 14:10:33;;;;;;;2.90;2.20;;;9.40;99.90;;;;;;5022902;28;21004;-67
2021/01/28 14:13:18;;;;;;;2.70;2.10;;;9.20;99.90;;;;;;5013764;28;20630;-66
2021/01/28 14:16:03;;;;;;;3.70;2.47;;;9.00;99.90;;;;;;5021671;28;20587;-68
2021/01/28 14:18:49;;;;;;;5.40;2.07;;;8.80;99.90;;;;;;5017353;28;20701;-65
2021/01/28 14:21:36;;;;;;;3.13;1.90;;;8.40;99.90;;;;;;5019717;28;20678;-66
2021/01/28 14:24:21;;;;;;;2.40;2.20;;;8.20;99.90;;;;;;5005127;28;20642;-68
2021/01/28 14:27:07;;;;;;;3.13;2.00;;;7.90;99.90;;;;;;5001894;28;20674;-69
2021/01/28 14:29:52;;;;;;;2.13;1.90;;;7.70;99.90;;;;;;5006941;28;20738;-70
2021/01/28 14:32:37;;;;;;;2.03;1.83;;;7.40;99.90;;;;;;5016969;28;20642;-69
2021/01/28 14:35:24;;;;;;;2.20;2.00;;;7.20;99.90;;;;;;5022924;28;21470;-69
2021/01/28 14:38:09;;;;;;;3.37;2.83;;;6.90;99.90;;;;;;5020181;28;21149;-69
2021/01/28 14:40:53;;;;;;;4.77;2.40;;;6.60;99.90;;;;;;5022895;28;20665;-64
2021/01/28 14:43:38;;;;;;;4.63;2.30;;;6.40;99.90;;;;;;5003858;28;21316;-66
2021/01/28 14:46:23;;;;;;;3.30;2.07;;;6.30;99.90;;;;;;5008068;28;20987;-65